sensor_id;sensor_type;location;lat;lon;timestamp;P1;durP1;ratioP1;P2;durP2;ratioP2
25567;SDS011;13455;51.480;7.594;2023-03-05T00:00:07;10.07;;;1.77;;
25567;SDS011;13455;51.480;7.594;2023-03-05T00:02:33;10.45;;;1.73;;
25567;SDS011;13455;51.480;7.594;2023-03-05T00:04:58;11.15;;;2.13;;
25567;SDS011;13455;51.480;7.594;2023-03-05T00:07:24;9.37;;;2.30;;
25567;SDS011;13455;51.480;7.594;2023-03-05T00:09:50;8.93;;;1.83;;
25567;SDS011;13455;51.480;7.594;2023-03-05T00:12:15;9.87;;;2.07;;
25567;SDS011;13455;51.480;7.594;2023-03-05T00:14:41;8.33;;;1.80;;
25567;SDS011;13455;51.480;7.594;2023-03-05T00:17:07;10.05;;;1.98;;
25567;SDS011;13455;51.480;7.594;2023-03-05T00:19:32;9.60;;;2.22;;
25567;SDS011;13455;51.480;7.594;2023-03-05T00:21:58;12.38;;;2.08;;
25567;SDS011;13455;51.480;7.594;2023-03-05T00:24:24;8.88;;;1.98;;
25567;SDS011;13455;51.480;7.594;2023-03-05T00:26:49;12.00;;;2.03;;
25567;SDS011;13455;51.480;7.594;2023-03-05T00:29:16;9.87;;;2.00;;
25567;SDS011;13455;51.480;7.594;2023-03-05T00:31:43;10.83;;;1.80;;
25567;SDS011;13455;51.480;7.594;2023-03-05T00:34:11;8.07;;;1.83;;
25567;SDS011;13455;51.480;7.594;2023-03-05T00:36:39;9.13;;;2.00;;
25567;SDS011;13455;51.480;7.594;2023-03-05T00:39:06;12.25;;;2.13;;
25567;SDS011;13455;51.480;7.594;2023-03-05T00:41:32;10.30;;;2.13;;
25567;SDS011;13455;51.480;7.594;2023-03-05T00:43:58;9.55;;;2.00;;
25567;SDS011;13455;51.480;7.594;2023-03-05T00:46:23;9.30;;;2.20;;
25567;SDS011;13455;51.480;7.594;2023-03-05T00:48:51;9.25;;;1.85;;
25567;SDS011;13455;51.480;7.594;2023-03-05T00:51:17;13.15;;;2.55;;
25567;SDS011;13455;51.480;7.594;2023-03-05T00:53:43;11.70;;;2.30;;
25567;SDS011;13455;51.480;7.594;2023-03-05T00:56:09;13.43;;;2.70;;
25567;SDS011;13455;51.480;7.594;2023-03-05T00:58:35;12.70;;;2.87;;
25567;SDS011;13455;51.480;7.594;2023-03-05T01:01:00;12.18;;;3.05;;
25567;SDS011;13455;51.480;7.594;2023-03-05T01:03:27;9.85;;;2.80;;
25567;SDS011;13455;51.480;7.594;2023-03-05T01:05:53;14.77;;;2.88;;
25567;SDS011;13455;51.480;7.594;2023-03-05T01:08:18;13.10;;;3.23;;
25567;SDS011;13455;51.480;7.594;2023-03-05T01:10:44;17.05;;;3.50;;
25567;SDS011;13455;51.480;7.594;2023-03-05T01:13:10;14.43;;;3.30;;
25567;SDS011;13455;51.480;7.594;2023-03-05T01:15:36;16.10;;;3.42;;
25567;SDS011;13455;51.480;7.594;2023-03-05T01:18:01;14.10;;;3.08;;
25567;SDS011;13455;51.480;7.594;2023-03-05T01:20:27;15.13;;;3.38;;
25567;SDS011;13455;51.480;7.594;2023-03-05T01:22:53;16.97;;;3.60;;
25567;SDS011;13455;51.480;7.594;2023-03-05T01:25:22;14.13;;;3.30;;
25567;SDS011;13455;51.480;7.594;2023-03-05T01:27:48;13.48;;;3.30;;
25567;SDS011;13455;51.480;7.594;2023-03-05T01:30:14;16.33;;;3.50;;
25567;SDS011;13455;51.480;7.594;2023-03-05T01:32:41;15.15;;;3.20;;
25567;SDS011;13455;51.480;7.594;2023-03-05T01:35:07;12.27;;;2.97;;
25567;SDS011;13455;51.480;7.594;2023-03-05T01:37:34;11.93;;;2.83;;
25567;SDS011;13455;51.480;7.594;2023-03-05T01:40:00;12.55;;;3.03;;
25567;SDS011;13455;51.480;7.594;2023-03-05T01:42:26;16.67;;;3.35;;
25567;SDS011;13455;51.480;7.594;2023-03-05T01:44:59;11.48;;;3.00;;
25567;SDS011;13455;51.480;7.594;2023-03-05T01:47:37;12.05;;;3.50;;
25567;SDS011;13455;51.480;7.594;2023-03-05T01:50:05;10.98;;;3.22;;
25567;SDS011;13455;51.480;7.594;2023-03-05T01:52:34;12.27;;;3.47;;
25567;SDS011;13455;51.480;7.594;2023-03-05T01:55:04;13.05;;;3.70;;
25567;SDS011;13455;51.480;7.594;2023-03-05T01:57:37;14.40;;;4.00;;
25567;SDS011;13455;51.480;7.594;2023-03-05T02:00:05;13.73;;;3.83;;
25567;SDS011;13455;51.480;7.594;2023-03-05T02:02:35;13.75;;;3.83;;
25567;SDS011;13455;51.480;7.594;2023-03-05T02:05:03;14.57;;;3.90;;
25567;SDS011;13455;51.480;7.594;2023-03-05T02:07:54;12.02;;;4.30;;
25567;SDS011;13455;51.480;7.594;2023-03-05T02:10:22;16.85;;;4.70;;
25567;SDS011;13455;51.480;7.594;2023-03-05T02:12:50;17.40;;;5.05;;
25567;SDS011;13455;51.480;7.594;2023-03-05T02:15:18;16.27;;;5.10;;
25567;SDS011;13455;51.480;7.594;2023-03-05T02:17:44;18.87;;;5.47;;
25567;SDS011;13455;51.480;7.594;2023-03-05T02:20:15;14.77;;;5.00;;
25567;SDS011;13455;51.480;7.594;2023-03-05T02:22:48;17.50;;;4.80;;
25567;SDS011;13455;51.480;7.594;2023-03-05T02:25:15;17.40;;;4.83;;
25567;SDS011;13455;51.480;7.594;2023-03-05T02:27:55;15.93;;;4.85;;
25567;SDS011;13455;51.480;7.594;2023-03-05T02:30:37;16.35;;;4.80;;
25567;SDS011;13455;51.480;7.594;2023-03-05T02:33:03;15.17;;;4.70;;
25567;SDS011;13455;51.480;7.594;2023-03-05T02:35:29;16.55;;;4.75;;
25567;SDS011;13455;51.480;7.594;2023-03-05T02:37:55;15.93;;;4.67;;
25567;SDS011;13455;51.480;7.594;2023-03-05T02:40:21;14.13;;;4.60;;
25567;SDS011;13455;51.480;7.594;2023-03-05T02:42:47;14.20;;;4.90;;
25567;SDS011;13455;51.480;7.594;2023-03-05T02:45:13;19.05;;;5.07;;
25567;SDS011;13455;51.480;7.594;2023-03-05T02:47:39;16.92;;;5.47;;
25567;SDS011;13455;51.480;7.594;2023-03-05T02:50:05;16.20;;;5.57;;
25567;SDS011;13455;51.480;7.594;2023-03-05T02:52:34;15.77;;;5.03;;
25567;SDS011;13455;51.480;7.594;2023-03-05T02:55:00;14.55;;;4.97;;
25567;SDS011;13455;51.480;7.594;2023-03-05T02:57:25;16.02;;;4.50;;
25567;SDS011;13455;51.480;7.594;2023-03-05T02:59:51;14.20;;;4.10;;
25567;SDS011;13455;51.480;7.594;2023-03-05T03:02:17;14.90;;;4.40;;
25567;SDS011;13455;51.480;7.594;2023-03-05T03:04:43;15.15;;;4.45;;
25567;SDS011;13455;51.480;7.594;2023-03-05T03:07:12;14.38;;;3.55;;
25567;SDS011;13455;51.480;7.594;2023-03-05T03:09:39;14.07;;;3.40;;
25567;SDS011;13455;51.480;7.594;2023-03-05T03:12:07;13.40;;;3.00;;
25567;SDS011;13455;51.480;7.594;2023-03-05T03:14:33;12.23;;;2.90;;
25567;SDS011;13455;51.480;7.594;2023-03-05T03:17:07;12.13;;;3.20;;
25567;SDS011;13455;51.480;7.594;2023-03-05T03:19:35;11.68;;;3.10;;
25567;SDS011;13455;51.480;7.594;2023-03-05T03:22:05;12.20;;;2.90;;
25567;SDS011;13455;51.480;7.594;2023-03-05T03:24:34;9.15;;;2.55;;
25567;SDS011;13455;51.480;7.594;2023-03-05T03:27:02;10.60;;;2.63;;
25567;SDS011;13455;51.480;7.594;2023-03-05T03:29:28;9.60;;;2.90;;
25567;SDS011;13455;51.480;7.594;2023-03-05T03:31:54;11.13;;;3.00;;
25567;SDS011;13455;51.480;7.594;2023-03-05T03:34:20;10.87;;;2.80;;
25567;SDS011;13455;51.480;7.594;2023-03-05T03:36:46;11.53;;;3.10;;
25567;SDS011;13455;51.480;7.594;2023-03-05T03:39:13;12.02;;;3.03;;
25567;SDS011;13455;51.480;7.594;2023-03-05T03:41:49;11.95;;;3.30;;
25567;SDS011;13455;51.480;7.594;2023-03-05T03:44:17;13.60;;;3.35;;
25567;SDS011;13455;51.480;7.594;2023-03-05T03:46:44;10.90;;;3.87;;
25567;SDS011;13455;51.480;7.594;2023-03-05T03:49:14;12.80;;;4.15;;
25567;SDS011;13455;51.480;7.594;2023-03-05T03:51:43;16.08;;;4.15;;
25567;SDS011;13455;51.480;7.594;2023-03-05T03:54:09;16.98;;;4.75;;
25567;SDS011;13455;51.480;7.594;2023-03-05T03:56:34;14.40;;;4.40;;
25567;SDS011;13455;51.480;7.594;2023-03-05T03:59:02;13.77;;;4.45;;
25567;SDS011;13455;51.480;7.594;2023-03-05T04:01:28;11.80;;;4.63;;
25567;SDS011;13455;51.480;7.594;2023-03-05T04:03:53;16.25;;;4.78;;
25567;SDS011;13455;51.480;7.594;2023-03-05T04:06:19;12.70;;;5.00;;
25567;SDS011;13455;51.480;7.594;2023-03-05T04:08:45;15.07;;;5.10;;
25567;SDS011;13455;51.480;7.594;2023-03-05T04:11:10;14.77;;;4.85;;
25567;SDS011;13455;51.480;7.594;2023-03-05T04:13:36;14.93;;;4.93;;
25567;SDS011;13455;51.480;7.594;2023-03-05T04:16:01;12.43;;;4.20;;
25567;SDS011;13455;51.480;7.594;2023-03-05T04:18:27;13.27;;;4.50;;
25567;SDS011;13455;51.480;7.594;2023-03-05T04:20:53;13.18;;;4.63;;
25567;SDS011;13455;51.480;7.594;2023-03-05T04:23:19;12.15;;;4.18;;
25567;SDS011;13455;51.480;7.594;2023-03-05T04:25:44;11.23;;;4.00;;
25567;SDS011;13455;51.480;7.594;2023-03-05T04:28:10;11.95;;;4.13;;
25567;SDS011;13455;51.480;7.594;2023-03-05T04:30:37;12.82;;;4.65;;
25567;SDS011;13455;51.480;7.594;2023-03-05T04:33:03;12.38;;;5.65;;
25567;SDS011;13455;51.480;7.594;2023-03-05T04:35:29;15.23;;;5.60;;
25567;SDS011;13455;51.480;7.594;2023-03-05T04:37:55;12.38;;;6.03;;
25567;SDS011;13455;51.480;7.594;2023-03-05T04:40:21;16.40;;;7.00;;
25567;SDS011;13455;51.480;7.594;2023-03-05T04:42:47;15.98;;;7.05;;
25567;SDS011;13455;51.480;7.594;2023-03-05T04:45:13;16.88;;;7.10;;
25567;SDS011;13455;51.480;7.594;2023-03-05T04:47:41;18.27;;;7.60;;
25567;SDS011;13455;51.480;7.594;2023-03-05T04:50:07;17.73;;;8.20;;
25567;SDS011;13455;51.480;7.594;2023-03-05T04:52:33;17.08;;;7.90;;
25567;SDS011;13455;51.480;7.594;2023-03-05T04:54:59;16.08;;;8.68;;
25567;SDS011;13455;51.480;7.594;2023-03-05T04:57:25;18.88;;;8.82;;
25567;SDS011;13455;51.480;7.594;2023-03-05T04:59:51;22.38;;;9.13;;
25567;SDS011;13455;51.480;7.594;2023-03-05T05:02:17;16.67;;;9.23;;
25567;SDS011;13455;51.480;7.594;2023-03-05T05:04:42;18.00;;;9.47;;
25567;SDS011;13455;51.480;7.594;2023-03-05T05:07:09;17.85;;;9.77;;
25567;SDS011;13455;51.480;7.594;2023-03-05T05:09:36;17.55;;;8.70;;
25567;SDS011;13455;51.480;7.594;2023-03-05T05:12:03;23.90;;;10.50;;
25567;SDS011;13455;51.480;7.594;2023-03-05T05:14:29;22.30;;;11.50;;
25567;SDS011;13455;51.480;7.594;2023-03-05T05:16:54;22.35;;;11.68;;
25567;SDS011;13455;51.480;7.594;2023-03-05T05:19:20;24.42;;;11.90;;
25567;SDS011;13455;51.480;7.594;2023-03-05T05:21:46;24.67;;;12.00;;
25567;SDS011;13455;51.480;7.594;2023-03-05T05:24:11;23.58;;;12.07;;
25567;SDS011;13455;51.480;7.594;2023-03-05T05:26:37;28.95;;;12.32;;
25567;SDS011;13455;51.480;7.594;2023-03-05T05:29:03;23.75;;;11.52;;
25567;SDS011;13455;51.480;7.594;2023-03-05T05:31:28;22.37;;;11.00;;
25567;SDS011;13455;51.480;7.594;2023-03-05T05:33:54;18.87;;;10.17;;
25567;SDS011;13455;51.480;7.594;2023-03-05T05:36:19;20.63;;;10.13;;
25567;SDS011;13455;51.480;7.594;2023-03-05T05:38:46;23.63;;;10.32;;
25567;SDS011;13455;51.480;7.594;2023-03-05T05:41:12;21.92;;;9.70;;
25567;SDS011;13455;51.480;7.594;2023-03-05T05:43:39;20.52;;;9.50;;
25567;SDS011;13455;51.480;7.594;2023-03-05T05:46:06;21.63;;;9.55;;
25567;SDS011;13455;51.480;7.594;2023-03-05T05:48:33;18.10;;;9.45;;
25567;SDS011;13455;51.480;7.594;2023-03-05T05:51:04;23.63;;;9.90;;
25567;SDS011;13455;51.480;7.594;2023-03-05T05:53:30;22.60;;;10.68;;
25567;SDS011;13455;51.480;7.594;2023-03-05T05:55:56;21.50;;;10.70;;
25567;SDS011;13455;51.480;7.594;2023-03-05T05:58:22;20.75;;;10.43;;
25567;SDS011;13455;51.480;7.594;2023-03-05T06:00:48;22.20;;;10.23;;
25567;SDS011;13455;51.480;7.594;2023-03-05T06:03:14;20.95;;;10.02;;
25567;SDS011;13455;51.480;7.594;2023-03-05T06:05:40;18.80;;;9.32;;
25567;SDS011;13455;51.480;7.594;2023-03-05T06:08:07;15.57;;;8.23;;
25567;SDS011;13455;51.480;7.594;2023-03-05T06:10:33;16.47;;;8.50;;
25567;SDS011;13455;51.480;7.594;2023-03-05T06:12:59;18.17;;;8.40;;
25567;SDS011;13455;51.480;7.594;2023-03-05T06:15:25;21.70;;;8.95;;
25567;SDS011;13455;51.480;7.594;2023-03-05T06:17:51;17.98;;;9.27;;
25567;SDS011;13455;51.480;7.594;2023-03-05T06:20:18;21.90;;;9.88;;
25567;SDS011;13455;51.480;7.594;2023-03-05T06:22:44;22.13;;;10.13;;
25567;SDS011;13455;51.480;7.594;2023-03-05T06:25:10;24.05;;;11.63;;
25567;SDS011;13455;51.480;7.594;2023-03-05T06:27:39;22.73;;;11.82;;
25567;SDS011;13455;51.480;7.594;2023-03-05T06:30:05;25.20;;;12.98;;
25567;SDS011;13455;51.480;7.594;2023-03-05T06:32:32;23.77;;;12.75;;
25567;SDS011;13455;51.480;7.594;2023-03-05T06:34:58;26.00;;;13.43;;
25567;SDS011;13455;51.480;7.594;2023-03-05T06:37:24;27.70;;;13.50;;
25567;SDS011;13455;51.480;7.594;2023-03-05T06:39:49;28.42;;;13.98;;
25567;SDS011;13455;51.480;7.594;2023-03-05T06:42:15;27.88;;;14.00;;
25567;SDS011;13455;51.480;7.594;2023-03-05T06:44:43;29.83;;;14.20;;
25567;SDS011;13455;51.480;7.594;2023-03-05T06:47:09;27.77;;;14.38;;
25567;SDS011;13455;51.480;7.594;2023-03-05T06:49:36;28.10;;;14.67;;
25567;SDS011;13455;51.480;7.594;2023-03-05T06:52:03;30.77;;;14.30;;
25567;SDS011;13455;51.480;7.594;2023-03-05T06:54:29;31.40;;;15.13;;
25567;SDS011;13455;51.480;7.594;2023-03-05T06:56:55;29.67;;;15.35;;
25567;SDS011;13455;51.480;7.594;2023-03-05T06:59:21;30.08;;;16.13;;
25567;SDS011;13455;51.480;7.594;2023-03-05T07:01:47;32.43;;;15.97;;
25567;SDS011;13455;51.480;7.594;2023-03-05T07:04:14;32.85;;;16.83;;
25567;SDS011;13455;51.480;7.594;2023-03-05T07:06:40;34.65;;;17.67;;
25567;SDS011;13455;51.480;7.594;2023-03-05T07:09:06;35.50;;;18.17;;
25567;SDS011;13455;51.480;7.594;2023-03-05T07:11:33;31.13;;;17.50;;
25567;SDS011;13455;51.480;7.594;2023-03-05T07:13:59;29.73;;;17.10;;
25567;SDS011;13455;51.480;7.594;2023-03-05T07:16:26;25.07;;;14.33;;
25567;SDS011;13455;51.480;7.594;2023-03-05T07:18:53;24.83;;;14.13;;
25567;SDS011;13455;51.480;7.594;2023-03-05T07:21:20;24.33;;;14.57;;
25567;SDS011;13455;51.480;7.594;2023-03-05T07:23:47;25.83;;;13.90;;
25567;SDS011;13455;51.480;7.594;2023-03-05T07:26:13;24.38;;;13.38;;
25567;SDS011;13455;51.480;7.594;2023-03-05T07:28:39;25.58;;;13.23;;
25567;SDS011;13455;51.480;7.594;2023-03-05T07:31:07;25.75;;;14.48;;
25567;SDS011;13455;51.480;7.594;2023-03-05T07:33:33;26.23;;;15.25;;
25567;SDS011;13455;51.480;7.594;2023-03-05T07:36:01;25.98;;;16.50;;
25567;SDS011;13455;51.480;7.594;2023-03-05T07:38:28;25.73;;;16.00;;
25567;SDS011;13455;51.480;7.594;2023-03-05T07:40:54;28.00;;;17.05;;
25567;SDS011;13455;51.480;7.594;2023-03-05T07:43:20;27.15;;;16.60;;
25567;SDS011;13455;51.480;7.594;2023-03-05T07:45:46;27.55;;;16.88;;
25567;SDS011;13455;51.480;7.594;2023-03-05T07:48:13;27.97;;;17.73;;
25567;SDS011;13455;51.480;7.594;2023-03-05T07:50:41;29.80;;;18.13;;
25567;SDS011;13455;51.480;7.594;2023-03-05T07:53:06;32.60;;;18.88;;
25567;SDS011;13455;51.480;7.594;2023-03-05T07:55:33;31.48;;;19.27;;
25567;SDS011;13455;51.480;7.594;2023-03-05T07:57:59;31.85;;;19.50;;
25567;SDS011;13455;51.480;7.594;2023-03-05T08:00:31;32.37;;;20.00;;
25567;SDS011;13455;51.480;7.594;2023-03-05T08:02:56;33.77;;;20.23;;
25567;SDS011;13455;51.480;7.594;2023-03-05T08:05:22;32.90;;;20.30;;
25567;SDS011;13455;51.480;7.594;2023-03-05T08:07:47;36.05;;;20.75;;
25567;SDS011;13455;51.480;7.594;2023-03-05T08:10:13;35.75;;;22.17;;
25567;SDS011;13455;51.480;7.594;2023-03-05T08:12:39;31.70;;;21.08;;
25567;SDS011;13455;51.480;7.594;2023-03-05T08:15:05;35.63;;;21.43;;
25567;SDS011;13455;51.480;7.594;2023-03-05T08:17:31;34.45;;;21.35;;
25567;SDS011;13455;51.480;7.594;2023-03-05T08:19:57;34.63;;;21.10;;
25567;SDS011;13455;51.480;7.594;2023-03-05T08:22:24;36.42;;;21.00;;
25567;SDS011;13455;51.480;7.594;2023-03-05T08:24:52;34.70;;;20.20;;
25567;SDS011;13455;51.480;7.594;2023-03-05T08:27:18;33.97;;;21.43;;
25567;SDS011;13455;51.480;7.594;2023-03-05T08:29:44;38.70;;;21.35;;
25567;SDS011;13455;51.480;7.594;2023-03-05T08:32:09;32.88;;;20.83;;
25567;SDS011;13455;51.480;7.594;2023-03-05T08:34:35;32.88;;;20.67;;
25567;SDS011;13455;51.480;7.594;2023-03-05T08:37:01;36.33;;;20.00;;
25567;SDS011;13455;51.480;7.594;2023-03-05T08:39:27;32.50;;;19.73;;
25567;SDS011;13455;51.480;7.594;2023-03-05T08:41:54;31.00;;;18.02;;
25567;SDS011;13455;51.480;7.594;2023-03-05T08:44:20;25.58;;;16.10;;
25567;SDS011;13455;51.480;7.594;2023-03-05T08:46:46;25.10;;;15.55;;
25567;SDS011;13455;51.480;7.594;2023-03-05T08:49:12;22.70;;;14.73;;
25567;SDS011;13455;51.480;7.594;2023-03-05T08:51:38;24.52;;;15.10;;
25567;SDS011;13455;51.480;7.594;2023-03-05T08:54:04;21.97;;;14.93;;
25567;SDS011;13455;51.480;7.594;2023-03-05T08:56:32;21.95;;;14.85;;
25567;SDS011;13455;51.480;7.594;2023-03-05T08:58:58;22.27;;;14.63;;
25567;SDS011;13455;51.480;7.594;2023-03-05T09:01:24;23.13;;;14.55;;
25567;SDS011;13455;51.480;7.594;2023-03-05T09:03:51;20.98;;;13.60;;
25567;SDS011;13455;51.480;7.594;2023-03-05T09:06:17;21.67;;;13.30;;
25567;SDS011;13455;51.480;7.594;2023-03-05T09:08:43;21.25;;;13.00;;
25567;SDS011;13455;51.480;7.594;2023-03-05T09:11:10;21.70;;;13.27;;
25567;SDS011;13455;51.480;7.594;2023-03-05T09:13:37;22.02;;;13.38;;
25567;SDS011;13455;51.480;7.594;2023-03-05T09:16:05;24.95;;;14.38;;
25567;SDS011;13455;51.480;7.594;2023-03-05T09:18:32;24.35;;;14.75;;
25567;SDS011;13455;51.480;7.594;2023-03-05T09:21:03;24.38;;;13.82;;
25567;SDS011;13455;51.480;7.594;2023-03-05T09:23:29;20.50;;;12.55;;
25567;SDS011;13455;51.480;7.594;2023-03-05T09:25:55;22.00;;;12.60;;
25567;SDS011;13455;51.480;7.594;2023-03-05T09:28:21;19.10;;;11.80;;
25567;SDS011;13455;51.480;7.594;2023-03-05T09:30:47;22.27;;;13.10;;
25567;SDS011;13455;51.480;7.594;2023-03-05T09:33:13;21.70;;;12.93;;
25567;SDS011;13455;51.480;7.594;2023-03-05T09:35:39;21.88;;;12.68;;
25567;SDS011;13455;51.480;7.594;2023-03-05T09:38:05;19.97;;;12.67;;
25567;SDS011;13455;51.480;7.594;2023-03-05T09:40:43;17.20;;;12.20;;
25567;SDS011;13455;51.480;7.594;2023-03-05T09:43:14;18.70;;;12.57;;
25567;SDS011;13455;51.480;7.594;2023-03-05T09:48:48;20.73;;;13.25;;
25567;SDS011;13455;51.480;7.594;2023-03-05T09:51:23;19.20;;;12.70;;
25567;SDS011;13455;51.480;7.594;2023-03-05T09:53:52;19.63;;;12.55;;
25567;SDS011;13455;51.480;7.594;2023-03-05T09:56:21;20.67;;;12.25;;
25567;SDS011;13455;51.480;7.594;2023-03-05T09:58:49;17.00;;;12.38;;
25567;SDS011;13455;51.480;7.594;2023-03-05T10:01:17;18.98;;;12.82;;
25567;SDS011;13455;51.480;7.594;2023-03-05T10:11:21;19.25;;;14.27;;
25567;SDS011;13455;51.480;7.594;2023-03-05T10:13:50;20.90;;;14.80;;
25567;SDS011;13455;51.480;7.594;2023-03-05T10:19:02;18.95;;;13.60;;
25567;SDS011;13455;51.480;7.594;2023-03-05T10:24:10;22.33;;;15.80;;
25567;SDS011;13455;51.480;7.594;2023-03-05T10:31:49;12.70;;;9.67;;
25567;SDS011;13455;51.480;7.594;2023-03-05T10:42:01;9.60;;;7.85;;
25567;SDS011;13455;51.480;7.594;2023-03-05T10:44:38;9.90;;;7.60;;
25567;SDS011;13455;51.480;7.594;2023-03-05T10:47:25;10.00;;;8.00;;
25567;SDS011;13455;51.480;7.594;2023-03-05T10:49:55;11.93;;;7.60;;
25567;SDS011;13455;51.480;7.594;2023-03-05T10:54:53;10.70;;;8.10;;
25567;SDS011;13455;51.480;7.594;2023-03-05T10:57:20;12.50;;;8.88;;
25567;SDS011;13455;51.480;7.594;2023-03-05T10:59:51;15.13;;;10.60;;
25567;SDS011;13455;51.480;7.594;2023-03-05T11:02:20;14.52;;;10.50;;
25567;SDS011;13455;51.480;7.594;2023-03-05T11:04:47;13.98;;;10.27;;
25567;SDS011;13455;51.480;7.594;2023-03-05T11:09:40;12.73;;;9.00;;
25567;SDS011;13455;51.480;7.594;2023-03-05T11:12:16;11.13;;;8.20;;
25567;SDS011;13455;51.480;7.594;2023-03-05T11:15:02;10.77;;;7.90;;
25567;SDS011;13455;51.480;7.594;2023-03-05T11:17:33;8.88;;;6.43;;
25567;SDS011;13455;51.480;7.594;2023-03-05T11:25:47;8.68;;;5.60;;
25567;SDS011;13455;51.480;7.594;2023-03-05T11:28:26;9.98;;;5.93;;
25567;SDS011;13455;51.480;7.594;2023-03-05T11:31:06;8.43;;;5.40;;
25567;SDS011;13455;51.480;7.594;2023-03-05T11:33:34;9.25;;;5.25;;
25567;SDS011;13455;51.480;7.594;2023-03-05T11:36:19;8.25;;;5.10;;
25567;SDS011;13455;51.480;7.594;2023-03-05T11:38:51;8.20;;;5.05;;
25567;SDS011;13455;51.480;7.594;2023-03-05T11:41:18;10.63;;;5.27;;
25567;SDS011;13455;51.480;7.594;2023-03-05T11:43:45;9.20;;;5.10;;
25567;SDS011;13455;51.480;7.594;2023-03-05T11:46:12;8.82;;;5.22;;
25567;SDS011;13455;51.480;7.594;2023-03-05T11:48:40;9.07;;;4.88;;
25567;SDS011;13455;51.480;7.594;2023-03-05T11:51:13;6.20;;;4.13;;
25567;SDS011;13455;51.480;7.594;2023-03-05T11:53:40;7.93;;;4.80;;
25567;SDS011;13455;51.480;7.594;2023-03-05T11:58:49;5.72;;;4.00;;
25567;SDS011;13455;51.480;7.594;2023-03-05T12:01:24;6.63;;;3.85;;
25567;SDS011;13455;51.480;7.594;2023-03-05T12:03:53;8.18;;;4.20;;
25567;SDS011;13455;51.480;7.594;2023-03-05T12:06:36;7.68;;;3.80;;
25567;SDS011;13455;51.480;7.594;2023-03-05T12:09:35;6.60;;;3.85;;
25567;SDS011;13455;51.480;7.594;2023-03-05T12:12:24;6.25;;;2.70;;
25567;SDS011;13455;51.480;7.594;2023-03-05T12:17:49;6.45;;;3.67;;
25567;SDS011;13455;51.480;7.594;2023-03-05T12:23:57;6.10;;;3.58;;
25567;SDS011;13455;51.480;7.594;2023-03-05T12:31:57;6.35;;;3.70;;
25567;SDS011;13455;51.480;7.594;2023-03-05T12:34:44;6.82;;;3.25;;
25567;SDS011;13455;51.480;7.594;2023-03-05T12:37:55;6.80;;;3.50;;
25567;SDS011;13455;51.480;7.594;2023-03-05T12:47:46;6.38;;;2.90;;
25567;SDS011;13455;51.480;7.594;2023-03-05T12:53:14;6.63;;;3.27;;
25567;SDS011;13455;51.480;7.594;2023-03-05T13:00:38;7.32;;;3.80;;
25567;SDS011;13455;51.480;7.594;2023-03-05T13:03:21;6.22;;;3.60;;
25567;SDS011;13455;51.480;7.594;2023-03-05T13:05:52;6.43;;;3.20;;
25567;SDS011;13455;51.480;7.594;2023-03-05T13:11:03;6.07;;;3.35;;
25567;SDS011;13455;51.480;7.594;2023-03-05T13:13:32;6.53;;;3.67;;
25567;SDS011;13455;51.480;7.594;2023-03-05T13:16:01;5.80;;;3.60;;
25567;SDS011;13455;51.480;7.594;2023-03-05T13:18:28;5.30;;;3.35;;
25567;SDS011;13455;51.480;7.594;2023-03-05T13:21:15;5.65;;;3.38;;
25567;SDS011;13455;51.480;7.594;2023-03-05T13:23:49;5.32;;;3.25;;
25567;SDS011;13455;51.480;7.594;2023-03-05T13:26:22;5.72;;;3.40;;
25567;SDS011;13455;51.480;7.594;2023-03-05T13:34:14;5.05;;;3.30;;
25567;SDS011;13455;51.480;7.594;2023-03-05T13:37:01;5.17;;;2.67;;
25567;SDS011;13455;51.480;7.594;2023-03-05T13:39:32;5.63;;;3.10;;
25567;SDS011;13455;51.480;7.594;2023-03-05T13:42:03;5.78;;;3.20;;
25567;SDS011;13455;51.480;7.594;2023-03-05T13:44:31;4.80;;;3.10;;
25567;SDS011;13455;51.480;7.594;2023-03-05T13:47:08;5.30;;;3.22;;
25567;SDS011;13455;51.480;7.594;2023-03-05T13:49:34;5.30;;;2.60;;
25567;SDS011;13455;51.480;7.594;2023-03-05T13:51:59;5.70;;;2.70;;
25567;SDS011;13455;51.480;7.594;2023-03-05T13:54:26;5.70;;;2.60;;
25567;SDS011;13455;51.480;7.594;2023-03-05T13:56:59;5.22;;;2.85;;
25567;SDS011;13455;51.480;7.594;2023-03-05T13:59:30;5.80;;;2.67;;
25567;SDS011;13455;51.480;7.594;2023-03-05T14:01:56;4.35;;;2.70;;
25567;SDS011;13455;51.480;7.594;2023-03-05T14:04:24;6.13;;;3.17;;
25567;SDS011;13455;51.480;7.594;2023-03-05T14:11:50;6.22;;;3.67;;
25567;SDS011;13455;51.480;7.594;2023-03-05T14:14:16;7.35;;;3.53;;
25567;SDS011;13455;51.480;7.594;2023-03-05T14:16:44;6.28;;;4.05;;
25567;SDS011;13455;51.480;7.594;2023-03-05T14:19:25;6.97;;;4.20;;
25567;SDS011;13455;51.480;7.594;2023-03-05T14:22:02;5.95;;;3.75;;
25567;SDS011;13455;51.480;7.594;2023-03-05T14:24:29;6.50;;;4.00;;
25567;SDS011;13455;51.480;7.594;2023-03-05T14:26:56;5.90;;;3.90;;
25567;SDS011;13455;51.480;7.594;2023-03-05T14:29:24;7.20;;;4.40;;
25567;SDS011;13455;51.480;7.594;2023-03-05T14:34:27;7.47;;;5.00;;
25567;SDS011;13455;51.480;7.594;2023-03-05T14:36:56;6.75;;;4.22;;
25567;SDS011;13455;51.480;7.594;2023-03-05T14:39:28;6.32;;;4.20;;
25567;SDS011;13455;51.480;7.594;2023-03-05T14:44:56;5.85;;;3.90;;
25567;SDS011;13455;51.480;7.594;2023-03-05T14:47:24;6.05;;;4.50;;
25567;SDS011;13455;51.480;7.594;2023-03-05T14:49:52;6.75;;;4.50;;
25567;SDS011;13455;51.480;7.594;2023-03-05T14:52:19;6.70;;;4.10;;
25567;SDS011;13455;51.480;7.594;2023-03-05T14:54:47;6.07;;;4.43;;
25567;SDS011;13455;51.480;7.594;2023-03-05T14:57:17;6.22;;;3.60;;
25567;SDS011;13455;51.480;7.594;2023-03-05T14:59:45;5.68;;;4.03;;
25567;SDS011;13455;51.480;7.594;2023-03-05T15:02:18;6.97;;;4.07;;
25567;SDS011;13455;51.480;7.594;2023-03-05T15:04:45;6.57;;;4.18;;
25567;SDS011;13455;51.480;7.594;2023-03-05T15:07:19;6.45;;;4.50;;
25567;SDS011;13455;51.480;7.594;2023-03-05T15:09:50;8.02;;;4.65;;
25567;SDS011;13455;51.480;7.594;2023-03-05T15:12:16;7.97;;;5.25;;
25567;SDS011;13455;51.480;7.594;2023-03-05T15:14:42;6.70;;;4.30;;
25567;SDS011;13455;51.480;7.594;2023-03-05T15:17:13;7.75;;;5.00;;
25567;SDS011;13455;51.480;7.594;2023-03-05T15:19:46;7.45;;;5.68;;
25567;SDS011;13455;51.480;7.594;2023-03-05T15:22:12;9.20;;;5.80;;
25567;SDS011;13455;51.480;7.594;2023-03-05T15:24:38;8.60;;;5.63;;
25567;SDS011;13455;51.480;7.594;2023-03-05T15:27:07;8.63;;;5.88;;
25567;SDS011;13455;51.480;7.594;2023-03-05T15:29:33;7.95;;;5.97;;
25567;SDS011;13455;51.480;7.594;2023-03-05T15:31:58;8.18;;;5.57;;
25567;SDS011;13455;51.480;7.594;2023-03-05T15:34:29;10.73;;;5.80;;
25567;SDS011;13455;51.480;7.594;2023-03-05T15:36:55;8.30;;;5.80;;
25567;SDS011;13455;51.480;7.594;2023-03-05T15:39:21;9.57;;;6.10;;
25567;SDS011;13455;51.480;7.594;2023-03-05T15:41:51;7.97;;;5.90;;
25567;SDS011;13455;51.480;7.594;2023-03-05T15:44:17;9.32;;;6.15;;
25567;SDS011;13455;51.480;7.594;2023-03-05T15:46:44;8.13;;;5.65;;
25567;SDS011;13455;51.480;7.594;2023-03-05T15:49:09;7.30;;;5.68;;
25567;SDS011;13455;51.480;7.594;2023-03-05T15:51:35;8.23;;;5.72;;
25567;SDS011;13455;51.480;7.594;2023-03-05T15:54:01;8.85;;;5.75;;
25567;SDS011;13455;51.480;7.594;2023-03-05T15:56:27;8.25;;;5.80;;
25567;SDS011;13455;51.480;7.594;2023-03-05T15:58:53;8.98;;;5.90;;
25567;SDS011;13455;51.480;7.594;2023-03-05T16:01:19;11.30;;;6.30;;
25567;SDS011;13455;51.480;7.594;2023-03-05T16:03:47;9.57;;;6.53;;
25567;SDS011;13455;51.480;7.594;2023-03-05T16:06:13;10.95;;;6.63;;